createdAt,value
2022-08-18T00:01:16.686Z,101335.66
2022-08-18T00:03:55.672Z,101329.53
2022-08-18T00:06:28.974Z,101335.03
2022-08-18T00:09:03.064Z,101337.56
2022-08-18T00:11:41.364Z,101309.03
2022-08-18T00:14:22.202Z,101333.06
2022-08-18T00:16:54.099Z,101325.13
2022-08-18T00:19:47.093Z,101353.34
2022-08-18T00:22:15.915Z,101359.03
2022-08-18T00:24:48.110Z,101380.34
2022-08-18T00:27:30.257Z,101386.50
2022-08-18T00:30:11.928Z,101378.00
2022-08-18T00:32:45.005Z,101385.91
2022-08-18T00:35:18.663Z,101373.22
2022-08-18T00:37:45.875Z,101358.28
2022-08-18T00:40:19.778Z,101390.25
2022-08-18T00:42:53.382Z,101382.66
2022-08-18T00:45:32.933Z,101390.13
2022-08-18T00:48:00.845Z,101384.13
2022-08-18T00:50:45.023Z,101368.69
2022-08-18T00:53:18.518Z,101394.78
2022-08-18T00:55:53.948Z,101394.41
2022-08-18T00:58:53.555Z,101367.66
2022-08-18T01:01:26.674Z,101393.41
2022-08-18T01:04:03.617Z,101387.88
2022-08-18T01:06:42.448Z,101397.63
2022-08-18T01:09:10.640Z,101391.72
2022-08-18T01:11:39.933Z,101372.56
2022-08-18T01:14:10.282Z,101386.31
2022-08-18T01:16:57.587Z,101358.31
2022-08-18T01:19:46.514Z,101383.97
2022-08-18T01:22:23.122Z,101392.88
2022-08-18T01:25:11.044Z,101390.19
2022-08-18T01:27:41.651Z,101374.06
2022-08-18T01:30:14.834Z,101391.34
2022-08-18T01:32:45.847Z,101384.88
2022-08-18T01:35:17.552Z,101393.31
2022-08-18T01:37:44.801Z,101368.38
2022-08-18T01:41:25.074Z,101377.44
2022-08-18T01:43:04.409Z,101356.81
2022-08-18T01:45:33.517Z,101358.94
2022-08-18T01:48:01.343Z,101324.50
2022-08-18T01:50:30.321Z,101327.00
2022-08-18T01:52:57.407Z,101343.44
2022-08-18T01:55:28.365Z,101328.34
2022-08-18T01:57:56.028Z,101350.41
2022-08-18T02:00:24.993Z,101330.25
2022-08-18T02:02:58.122Z,101328.72
2022-08-18T02:05:37.482Z,101328.53
2022-08-18T02:08:06.624Z,101308.88
2022-08-18T02:10:34.449Z,101313.25
2022-08-18T02:13:02.451Z,101334.25
2022-08-18T02:15:29.693Z,101331.91
2022-08-18T02:17:56.856Z,101309.44
2022-08-18T02:20:24.578Z,101325.00
2022-08-18T02:22:52.512Z,101324.91
2022-08-18T02:25:20.402Z,101323.00
2022-08-18T02:27:47.541Z,101321.47
2022-08-18T02:30:18.644Z,101318.78
2022-08-18T02:32:45.857Z,101320.75
2022-08-18T02:35:13.191Z,101300.09
2022-08-18T02:37:42.250Z,101284.09
2022-08-18T02:40:14.727Z,101292.34
2022-08-18T02:42:44.414Z,101317.50
2022-08-18T02:45:12.887Z,101293.19
2022-08-18T02:47:40.399Z,101276.56
2022-08-18T02:50:11.982Z,101285.19
2022-08-18T02:52:40.367Z,101297.59
2022-08-18T02:55:09.049Z,101297.38
2022-08-18T02:57:36.568Z,101290.31
2022-08-18T03:00:04.881Z,101303.31
2022-08-18T03:02:32.387Z,101294.50
2022-08-18T03:04:59.645Z,101285.25
2022-08-18T03:07:26.689Z,101289.28
2022-08-18T03:09:53.722Z,101288.97
2022-08-18T03:12:20.726Z,101295.09
2022-08-18T03:14:47.875Z,101261.41
2022-08-18T03:17:15.120Z,101240.78
2022-08-18T03:19:47.920Z,101284.59
2022-08-18T03:22:27.159Z,101296.81
2022-08-18T03:24:56.053Z,101291.75
2022-08-18T03:27:23.047Z,101284.22
2022-08-18T03:29:51.171Z,101291.09
2022-08-18T03:32:18.809Z,101296.91
2022-08-18T03:34:45.933Z,101276.97
2022-08-18T03:37:15.899Z,101288.13
2022-08-18T03:39:43.143Z,101276.00
2022-08-18T03:42:10.393Z,101289.75
2022-08-18T03:44:37.573Z,101285.53
2022-08-18T03:47:11.003Z,101279.47
2022-08-18T03:49:39.141Z,101263.97
2022-08-18T03:52:10.325Z,101243.44
2022-08-18T03:54:39.194Z,101271.97
2022-08-18T03:57:09.649Z,101274.66
2022-08-18T03:59:37.453Z,101248.41
2022-08-18T04:02:05.518Z,101273.69
2022-08-18T04:04:32.712Z,101263.13
2022-08-18T04:07:07.704Z,101269.03
2022-08-18T04:09:36.766Z,101262.13
2022-08-18T04:12:15.434Z,101248.03
2022-08-18T04:14:48.749Z,101258.59
2022-08-18T04:17:25.235Z,101270.75
2022-08-18T04:19:56.905Z,101260.63
2022-08-18T04:22:25.334Z,101286.78
2022-08-18T04:24:53.552Z,101279.63
2022-08-18T04:27:22.824Z,101278.88
2022-08-18T04:29:50.142Z,101267.13
2022-08-18T04:32:34.842Z,101288.22
2022-08-18T04:35:02.730Z,101268.16
2022-08-18T04:37:32.390Z,101271.53
2022-08-18T04:40:00.370Z,101265.41
2022-08-18T04:42:27.531Z,101266.44
2022-08-18T04:44:54.604Z,101232.66
2022-08-18T04:47:22.109Z,101240.47
2022-08-18T04:49:50.797Z,101233.22
2022-08-18T04:52:40.710Z,101252.91
2022-08-18T04:55:10.419Z,101260.84
2022-08-18T04:57:38.098Z,101265.22
2022-08-18T05:00:07.445Z,101269.59
2022-08-18T05:02:35.015Z,101245.06
2022-08-18T05:05:03.871Z,101266.66
2022-08-18T05:07:31.564Z,101265.69
2022-08-18T05:09:58.896Z,101268.19
2022-08-18T05:12:26.825Z,101261.03
2022-08-18T05:14:57.029Z,101282.78
2022-08-18T05:17:29.075Z,101269.91
2022-08-18T05:19:58.784Z,101266.66
2022-08-18T05:22:28.388Z,101281.69
2022-08-18T05:24:55.849Z,101252.88
2022-08-18T05:27:22.829Z,101276.22
2022-08-18T05:29:51.686Z,101260.81
2022-08-18T05:32:40.911Z,101239.03
2022-08-18T05:35:18.262Z,101268.03
2022-08-18T05:37:54.998Z,101245.34
2022-08-18T05:40:27.384Z,101247.94
2022-08-18T05:42:58.450Z,101245.81
2022-08-18T05:45:26.907Z,101256.34
2022-08-18T05:48:02.387Z,101231.06
2022-08-18T05:50:37.285Z,101263.00
2022-08-18T05:53:13.884Z,101242.19
2022-08-18T05:56:16.740Z,101245.22
2022-08-18T05:58:51.739Z,101230.13
2022-08-18T06:01:55.696Z,101234.44
2022-08-18T06:04:39.561Z,101240.66
2022-08-18T06:07:13.515Z,101213.22
2022-08-18T06:09:58.676Z,101240.66
2022-08-18T06:12:42.194Z,101256.44
2022-08-18T06:15:27.829Z,101260.22
2022-08-18T06:18:10.719Z,101263.97
2022-08-18T06:21:16.188Z,101258.72
2022-08-18T06:24:28.708Z,101267.63
2022-08-18T06:27:20.112Z,101250.13
2022-08-18T06:30:19.442Z,101270.06
2022-08-18T06:34:01.699Z,101264.03
2022-08-18T06:36:51.358Z,101273.44
2022-08-18T06:39:45.685Z,101273.81
2022-08-18T06:42:26.633Z,101263.84
2022-08-18T06:45:03.449Z,101269.97
2022-08-18T06:47:45.574Z,101274.63
2022-08-18T06:50:33.078Z,101264.22
2022-08-18T06:53:07.995Z,101277.34
2022-08-18T06:55:55.541Z,101271.53
2022-08-18T06:58:31.808Z,101264.13
2022-08-18T07:01:07.379Z,101253.88
2022-08-18T07:03:41.188Z,101274.19
2022-08-18T07:06:24.347Z,101260.63
2022-08-18T07:09:22.130Z,101257.09
2022-08-18T07:12:08.671Z,101247.94
2022-08-18T07:14:55.236Z,101259.25
2022-08-18T07:17:43.384Z,101235.19
2022-08-18T07:20:22.683Z,101259.53
2022-08-18T07:23:08.107Z,101250.25
2022-08-18T07:25:45.882Z,101257.81
2022-08-18T07:28:33.712Z,101255.03
2022-08-18T07:31:28.213Z,101247.94
2022-08-18T07:34:12.692Z,101242.81
2022-08-18T07:36:53.207Z,101233.78
2022-08-18T07:39:29.758Z,101245.16
2022-08-18T07:42:53.910Z,101244.13
2022-08-18T07:45:32.764Z,101258.31
2022-08-18T07:48:37.497Z,101261.22
2022-08-18T07:51:13.275Z,101256.84
2022-08-18T07:54:44.919Z,101253.25
2022-08-18T07:57:19.689Z,101250.19
2022-08-18T08:00:18.605Z,101256.25
2022-08-18T08:03:26.722Z,101257.72
2022-08-18T08:06:11.802Z,101259.16
2022-08-18T08:09:09.931Z,101261.78
2022-08-18T08:11:56.364Z,101274.03
2022-08-18T08:14:35.584Z,101266.44
2022-08-18T08:17:23.920Z,101274.16
2022-08-18T08:20:00.595Z,101263.97
2022-08-18T08:22:55.091Z,101270.41
2022-08-18T08:25:50.609Z,101255.78
2022-08-18T08:28:57.459Z,101278.09
2022-08-18T08:31:47.471Z,101285.25
2022-08-18T08:34:17.383Z,101282.91
2022-08-18T08:36:48.173Z,101270.84
2022-08-18T08:39:28.385Z,101262.88
2022-08-18T08:42:30.534Z,101270.66
2022-08-18T08:45:07.261Z,101271.34
2022-08-18T08:47:48.111Z,101265.16
2022-08-18T08:50:26.362Z,101260.75
2022-08-18T08:53:24.833Z,101265.59
2022-08-18T08:56:02.397Z,101264.88
2022-08-18T08:58:36.809Z,101267.84
2022-08-18T09:01:05.106Z,101271.66
2022-08-18T09:03:53.480Z,101276.94
2022-08-18T09:07:08.347Z,101261.31
2022-08-18T09:10:22.819Z,101263.88
2022-08-18T09:13:01.865Z,101255.50
2022-08-18T09:15:49.534Z,101249.97
2022-08-18T09:19:04.948Z,101256.81
2022-08-18T09:21:47.694Z,101236.94
2022-08-18T09:24:47.487Z,101239.28
2022-08-18T09:27:30.541Z,101246.38
2022-08-18T09:30:04.332Z,101239.56
2022-08-18T09:32:53.083Z,101238.00
2022-08-18T09:35:43.987Z,101236.00
2022-08-18T09:38:39.846Z,101226.19
2022-08-18T09:41:50.968Z,101221.06
2022-08-18T09:44:48.482Z,101231.34
2022-08-18T09:47:24.677Z,101232.75
2022-08-18T09:49:57.506Z,101219.25
2022-08-18T09:52:26.957Z,101219.41
2022-08-18T09:55:05.521Z,101234.19
2022-08-18T09:57:42.455Z,101229.06
2022-08-18T10:00:14.763Z,101224.50
2022-08-18T10:02:41.868Z,101230.75
2022-08-18T10:05:15.787Z,101229.06
2022-08-18T10:08:03.710Z,101221.66
2022-08-18T10:11:00.571Z,101216.84
2022-08-18T10:14:25.867Z,101217.41
2022-08-18T10:17:23.807Z,101219.41
2022-08-18T10:20:26.736Z,101218.84
2022-08-18T10:22:56.556Z,101214.00
2022-08-18T10:25:52.801Z,101220.84
2022-08-18T10:28:56.335Z,101220.00
2022-08-18T10:31:27.289Z,101207.19
2022-08-18T10:34:15.993Z,101215.13
2022-08-18T10:36:54.961Z,101211.72
2022-08-18T10:39:42.296Z,101215.97
2022-08-18T10:42:35.608Z,101209.97
2022-08-18T10:45:28.102Z,101200.16
2022-08-18T10:48:16.909Z,101201.44
2022-08-18T10:51:15.388Z,101188.78
2022-08-18T10:54:03.257Z,101195.13
2022-08-18T10:56:48.121Z,101188.44
2022-08-18T10:59:54.692Z,101200.22
2022-08-18T11:02:44.201Z,101202.34
2022-08-18T11:05:17.321Z,101197.31
2022-08-18T11:07:52.116Z,101205.13
2022-08-18T11:10:58.190Z,101164.91
2022-08-18T11:13:52.968Z,101180.97
2022-08-18T11:16:51.149Z,101206.22
2022-08-18T11:19:25.156Z,101213.25
2022-08-18T11:21:53.825Z,101212.72
2022-08-18T11:24:28.203Z,101224.97
2022-08-18T11:27:04.238Z,101213.94
2022-08-18T11:29:42.533Z,101217.97
2022-08-18T11:32:32.396Z,101220.84
2022-08-18T11:35:01.995Z,101225.09
2022-08-18T11:37:53.451Z,101220.28
2022-08-18T11:43:41.102Z,101223.38
2022-08-18T11:46:30.033Z,101241.28
2022-08-18T11:49:01.753Z,101233.59
2022-08-18T11:51:32.906Z,101225.31
2022-08-18T11:54:12.792Z,101236.34
2022-08-18T11:56:40.008Z,101244.84
2022-08-18T11:59:53.140Z,101241.38
2022-08-18T12:02:19.310Z,101238.94
2022-08-18T12:05:08.702Z,101242.06
2022-08-18T12:07:45.382Z,101239.06
2022-08-18T12:10:28.959Z,101238.34
2022-08-18T12:13:00.682Z,101238.22
2022-08-18T12:15:43.558Z,101239.34
2022-08-18T12:18:26.362Z,101237.88
2022-08-18T12:21:02.720Z,101238.75
2022-08-18T12:26:38.079Z,101250.06
2022-08-18T12:29:09.053Z,101234.81
2022-08-18T12:34:27.340Z,101241.97
2022-08-18T12:37:54.403Z,101229.47
2022-08-18T12:40:08.635Z,101231.13
2022-08-18T12:42:36.044Z,101226.59
2022-08-18T12:45:03.428Z,101236.84
2022-08-18T12:47:31.648Z,101234.19
2022-08-18T12:49:59.358Z,101224.00
2022-08-18T12:52:28.587Z,101218.63
2022-08-18T12:54:56.104Z,101229.28
2022-08-18T12:57:51.629Z,101236.34
2022-08-18T13:03:19.859Z,101206.38
2022-08-18T13:05:47.135Z,101238.13
2022-08-18T13:08:30.018Z,101229.19
2022-08-18T13:11:15.233Z,101234.56
2022-08-18T13:13:53.130Z,101242.13
2022-08-18T13:16:38.687Z,101229.50
2022-08-18T13:19:15.030Z,101220.09
2022-08-18T13:21:42.953Z,101231.00
2022-08-18T13:24:12.632Z,101224.53
2022-08-18T13:26:47.373Z,101225.78
2022-08-18T13:29:17.952Z,101232.16
2022-08-18T13:31:55.917Z,101222.81
2022-08-18T13:34:29.813Z,101216.72
2022-08-18T13:36:57.786Z,101216.94
2022-08-18T13:39:25.730Z,101212.59
2022-08-18T13:42:01.460Z,101214.97
2022-08-18T13:44:49.861Z,101215.13
2022-08-18T13:47:21.708Z,101216.13
2022-08-18T13:49:58.635Z,101218.09
2022-08-18T13:52:41.221Z,101197.19
2022-08-18T13:55:16.867Z,101201.91
2022-08-18T13:57:54.038Z,101207.03
2022-08-18T14:00:34.655Z,101204.47
2022-08-18T14:03:03.502Z,101195.69
2022-08-18T14:05:36.462Z,101203.66
2022-08-18T14:08:19.135Z,101200.03
2022-08-18T14:10:53.212Z,101201.03
2022-08-18T14:13:24.350Z,101193.47
2022-08-18T14:15:56.142Z,101188.22
2022-08-18T14:18:29.090Z,101185.78
2022-08-18T14:21:23.054Z,101191.97
2022-08-18T14:24:10.513Z,101194.50
2022-08-18T14:26:50.842Z,101194.78
2022-08-18T14:29:46.470Z,101200.69
2022-08-18T14:32:07.339Z,101194.66
2022-08-18T14:34:34.605Z,101195.56
2022-08-18T14:37:03.371Z,101203.28
2022-08-18T14:39:30.498Z,101203.28
2022-08-18T14:41:58.532Z,101202.78
2022-08-18T14:44:29.065Z,101192.25
2022-08-18T14:46:58.981Z,101206.47
2022-08-18T14:49:28.494Z,101195.69
2022-08-18T14:52:01.093Z,101203.22
2022-08-18T14:54:30.118Z,101199.53
2022-08-18T14:57:01.766Z,101204.50
2022-08-18T14:59:30.916Z,101209.53
2022-08-18T15:02:01.914Z,101207.50
2022-08-18T15:04:29.020Z,101214.84
2022-08-18T15:06:57.596Z,101209.00
2022-08-18T15:09:27.714Z,101217.53
2022-08-18T15:11:58.050Z,101222.19
2022-08-18T15:14:32.953Z,101232.03
2022-08-18T15:17:11.803Z,101220.84
2022-08-18T15:20:00.422Z,101222.44
2022-08-18T15:22:47.911Z,101229.22
2022-08-18T15:25:34.859Z,101235.31
2022-08-18T15:28:02.078Z,101236.78
2022-08-18T15:30:29.425Z,101244.50
2022-08-18T15:32:58.930Z,101253.03
2022-08-18T15:35:26.176Z,101242.25
2022-08-18T15:37:54.700Z,101242.50
2022-08-18T15:40:31.064Z,101243.13
2022-08-18T15:43:09.579Z,101242.38
2022-08-18T15:45:56.364Z,101245.09
2022-08-18T15:48:28.351Z,101249.50
2022-08-18T15:50:56.005Z,101233.22
2022-08-18T15:53:30.099Z,101250.34
2022-08-18T15:55:57.923Z,101238.75
2022-08-18T15:58:26.918Z,101245.84
2022-08-18T16:00:58.817Z,101245.84
2022-08-18T16:03:26.197Z,101251.72
2022-08-18T16:05:55.362Z,101252.22
2022-08-18T16:08:25.409Z,101251.34
2022-08-18T16:10:53.889Z,101256.16
2022-08-18T16:13:22.573Z,101260.91
2022-08-18T16:15:50.361Z,101245.63
2022-08-18T16:18:20.967Z,101250.00
2022-08-18T16:20:48.788Z,101234.09
2022-08-18T16:23:20.012Z,101246.81
2022-08-18T16:25:46.979Z,101260.28
2022-08-18T16:28:14.032Z,101250.28
2022-08-18T16:30:41.940Z,101246.59
2022-08-18T16:33:09.502Z,101247.72
2022-08-18T16:35:38.592Z,101246.59
2022-08-18T16:38:08.824Z,101246.03
2022-08-18T16:40:37.655Z,101241.69
2022-08-18T16:43:07.142Z,101252.00
2022-08-18T16:45:37.635Z,101241.34
2022-08-18T16:48:08.233Z,101252.94
2022-08-18T16:50:37.711Z,101243.53
2022-08-18T16:53:05.577Z,101256.63
2022-08-18T16:55:32.750Z,101253.19
2022-08-18T16:58:18.531Z,101268.84
2022-08-18T17:01:04.073Z,101270.75
2022-08-18T17:03:49.637Z,101251.31
2022-08-18T17:06:19.356Z,101260.34
2022-08-18T17:08:46.806Z,101254.28
2022-08-18T17:11:18.863Z,101261.59
2022-08-18T17:13:49.835Z,101261.47
2022-08-18T17:16:19.847Z,101258.81
2022-08-18T17:18:47.768Z,101255.75
2022-08-18T17:21:21.528Z,101244.03
2022-08-18T17:23:50.442Z,101259.44
2022-08-18T17:26:38.402Z,101262.13
2022-08-18T17:29:27.044Z,101250.63
2022-08-18T17:32:03.884Z,101241.94
2022-08-18T17:34:39.615Z,101234.00
2022-08-18T17:37:13.381Z,101231.81
2022-08-18T17:40:00.490Z,101227.66
2022-08-18T17:42:31.965Z,101234.56
2022-08-18T17:45:10.557Z,101222.44
2022-08-18T17:48:16.231Z,101226.81
2022-08-18T17:51:30.336Z,101222.56
2022-08-18T17:54:01.120Z,101223.25
2022-08-18T17:56:39.910Z,101230.09
2022-08-18T17:59:50.969Z,101226.81
2022-08-18T18:02:29.449Z,101238.91
2022-08-18T18:05:06.349Z,101232.66
2022-08-18T18:07:50.501Z,101230.84
2022-08-18T18:13:33.711Z,101245.84
2022-08-18T18:16:35.097Z,101252.78
2022-08-18T18:19:06.789Z,101266.53
2022-08-18T18:22:07.771Z,101259.94
2022-08-18T18:24:38.504Z,101262.25
2022-08-18T18:27:43.428Z,101267.94
2022-08-18T18:30:16.724Z,101271.31
2022-08-18T18:33:05.080Z,101271.72
2022-08-18T18:36:03.766Z,101287.06
2022-08-18T18:38:38.078Z,101286.66
2022-08-18T18:41:14.142Z,101287.75
2022-08-18T18:43:47.419Z,101294.94
2022-08-18T18:46:21.941Z,101292.34
2022-08-18T18:49:07.856Z,101292.28
2022-08-18T18:52:13.995Z,101305.91
2022-08-18T18:55:02.437Z,101315.59
2022-08-18T18:57:44.642Z,101319.84
2022-08-18T19:00:30.045Z,101317.06
2022-08-18T19:03:23.685Z,101297.31
2022-08-18T19:06:21.247Z,101305.06
2022-08-18T19:08:53.899Z,101289.34
2022-08-18T19:11:48.061Z,101299.31
2022-08-18T19:14:26.553Z,101303.94
2022-08-18T19:17:08.996Z,101297.31
2022-08-18T19:19:55.453Z,101297.97
2022-08-18T19:22:34.116Z,101296.25
2022-08-18T19:25:22.997Z,101289.16
2022-08-18T19:27:59.545Z,101296.25
2022-08-18T19:30:28.311Z,101301.06
2022-08-18T19:33:00.978Z,101295.41
2022-08-18T19:35:58.795Z,101311.28
2022-08-18T19:38:36.888Z,101325.66
2022-08-18T19:41:39.515Z,101345.72
2022-08-18T19:44:31.278Z,101350.13
2022-08-18T19:47:12.915Z,101338.63
2022-08-18T19:50:01.146Z,101333.50
2022-08-18T19:53:04.791Z,101329.41
2022-08-18T19:56:21.500Z,101335.94
2022-08-18T19:59:15.427Z,101348.50
2022-08-18T20:02:12.125Z,101349.47
2022-08-18T20:04:59.174Z,101341.56
2022-08-18T20:08:13.124Z,101355.06
2022-08-18T20:11:16.652Z,101354.22
2022-08-18T20:13:45.791Z,101342.63
2022-08-18T20:16:43.755Z,101327.38
2022-08-18T20:19:33.607Z,101328.13
2022-08-18T20:22:21.748Z,101332.41
2022-08-18T20:25:23.636Z,101326.94
2022-08-18T20:28:23.651Z,101317.06
2022-08-18T20:31:15.965Z,101309.13
2022-08-18T20:34:14.288Z,101317.16
2022-08-18T20:36:45.065Z,101310.63
2022-08-18T20:39:48.710Z,101293.47
2022-08-18T20:42:21.512Z,101286.47
2022-08-18T20:44:48.460Z,101273.28
2022-08-18T20:47:42.648Z,101269.13
2022-08-18T20:50:50.536Z,101260.22
2022-08-18T20:53:57.667Z,101286.38
2022-08-18T20:56:46.531Z,101281.88
2022-08-18T20:59:22.032Z,101276.63
2022-08-18T21:02:30.301Z,101275.25
2022-08-18T21:05:00.712Z,101290.00
2022-08-18T21:07:37.416Z,101294.00
2022-08-18T21:10:24.895Z,101298.50
2022-08-18T21:12:57.809Z,101291.81
2022-08-18T21:15:35.614Z,101297.09
2022-08-18T21:18:24.768Z,101282.75
2022-08-18T21:20:56.140Z,101283.78
2022-08-18T21:23:37.634Z,101274.06
2022-08-18T21:26:13.792Z,101279.06
2022-08-18T21:28:47.911Z,101279.94
2022-08-18T21:31:42.699Z,101284.22
2022-08-18T21:34:43.005Z,101219.16
2022-08-18T21:37:15.726Z,101290.56
2022-08-18T21:40:03.064Z,101294.97
2022-08-18T21:42:43.704Z,101298.41
2022-08-18T21:45:18.507Z,101299.16
2022-08-18T21:47:56.608Z,101301.84
2022-08-18T21:50:28.978Z,101303.34
2022-08-18T21:53:00.818Z,101297.03
2022-08-18T21:55:49.571Z,101299.50
2022-08-18T21:58:40.596Z,101305.63
2022-08-18T22:01:10.803Z,101293.91
2022-08-18T22:04:18.177Z,101302.84
2022-08-18T22:07:34.140Z,101309.03
2022-08-18T22:10:42.917Z,101302.38
2022-08-18T22:13:44.489Z,101321.72
2022-08-18T22:16:36.278Z,101327.06
2022-08-18T22:19:27.656Z,101325.25
2022-08-18T22:22:27.292Z,101324.69
2022-08-18T22:24:58.876Z,101337.06
2022-08-18T22:27:27.414Z,101343.78
2022-08-18T22:30:05.129Z,101323.94
2022-08-18T22:32:38.731Z,101332.84
2022-08-18T22:35:08.130Z,101338.22
2022-08-18T22:37:50.114Z,101338.13
2022-08-18T22:40:21.442Z,101340.03
2022-08-18T22:42:49.533Z,101332.97
2022-08-18T22:45:16.611Z,101335.84
2022-08-18T22:47:45.069Z,101324.06
2022-08-18T22:50:13.533Z,101327.59
2022-08-18T22:52:46.620Z,101324.41
2022-08-18T22:55:22.063Z,101324.41
2022-08-18T22:57:55.871Z,101309.47
2022-08-18T23:00:26.273Z,101299.06
2022-08-18T23:02:55.355Z,101305.47
2022-08-18T23:05:23.386Z,101301.19
2022-08-18T23:07:50.643Z,101293.69
2022-08-18T23:10:18.259Z,101300.53
2022-08-18T23:12:47.538Z,101302.50
2022-08-18T23:15:18.013Z,101300.97
2022-08-18T23:17:45.056Z,101296.06
2022-08-18T23:20:19.305Z,101306.53
2022-08-18T23:22:48.114Z,101298.63
2022-08-18T23:25:15.746Z,101288.66
2022-08-18T23:27:43.299Z,101291.84
2022-08-18T23:30:11.388Z,101277.78
2022-08-18T23:32:38.532Z,101275.25
2022-08-18T23:35:15.406Z,101262.56
2022-08-18T23:37:42.590Z,101253.81
2022-08-18T23:40:17.525Z,101258.94
2022-08-18T23:42:44.973Z,101254.53
2022-08-18T23:45:12.322Z,101260.66
2022-08-18T23:47:41.306Z,101251.84
2022-08-18T23:50:08.957Z,101236.31
2022-08-18T23:52:36.243Z,101237.91
2022-08-18T23:55:10.666Z,101242.53
2022-08-18T23:57:37.693Z,101236.00
